sensor_id;sensor_type;location;lat;lon;timestamp;P1;durP1;ratioP1;P2;durP2;ratioP2
49910;SDS011;35803;53.096;5.844;2024-01-15T00:01:17;5.57;;;1.02;;
49910;SDS011;35803;53.096;5.844;2024-01-15T00:04:02;2.85;;;0.95;;
49910;SDS011;35803;53.096;5.844;2024-01-15T00:06:49;4.63;;;1.10;;
49910;SDS011;35803;53.096;5.844;2024-01-15T00:09:35;6.82;;;1.10;;
49910;SDS011;35803;53.096;5.844;2024-01-15T00:12:21;6.50;;;1.27;;
49910;SDS011;35803;53.096;5.844;2024-01-15T00:15:09;1.55;;;1.10;;
49910;SDS011;35803;53.096;5.844;2024-01-15T00:17:55;5.63;;;1.20;;
49910;SDS011;35803;53.096;5.844;2024-01-15T00:20:41;6.00;;;1.20;;
49910;SDS011;35803;53.096;5.844;2024-01-15T00:23:26;1.73;;;0.90;;
49910;SDS011;35803;53.096;5.844;2024-01-15T00:26:12;9.57;;;1.60;;
49910;SDS011;35803;53.096;5.844;2024-01-15T00:28:58;11.93;;;1.30;;
49910;SDS011;35803;53.096;5.844;2024-01-15T00:31:44;8.20;;;1.25;;
49910;SDS011;35803;53.096;5.844;2024-01-15T00:34:30;6.18;;;1.10;;
49910;SDS011;35803;53.096;5.844;2024-01-15T00:37:15;4.95;;;1.00;;
49910;SDS011;35803;53.096;5.844;2024-01-15T00:40:01;11.10;;;1.55;;
49910;SDS011;35803;53.096;5.844;2024-01-15T00:42:47;8.98;;;1.48;;
49910;SDS011;35803;53.096;5.844;2024-01-15T00:45:33;3.72;;;1.20;;
49910;SDS011;35803;53.096;5.844;2024-01-15T00:48:19;6.78;;;1.27;;
49910;SDS011;35803;53.096;5.844;2024-01-15T00:51:05;7.32;;;1.30;;
49910;SDS011;35803;53.096;5.844;2024-01-15T00:53:50;1.33;;;0.85;;
49910;SDS011;35803;53.096;5.844;2024-01-15T00:56:36;2.78;;;0.70;;
49910;SDS011;35803;53.096;5.844;2024-01-15T00:59:25;1.27;;;0.60;;
49910;SDS011;35803;53.096;5.844;2024-01-15T01:02:10;3.17;;;0.63;;
49910;SDS011;35803;53.096;5.844;2024-01-15T01:04:56;2.30;;;0.88;;
49910;SDS011;35803;53.096;5.844;2024-01-15T01:07:42;1.33;;;0.70;;
49910;SDS011;35803;53.096;5.844;2024-01-15T01:10:28;5.30;;;0.70;;
49910;SDS011;35803;53.096;5.844;2024-01-15T01:13:13;4.88;;;1.00;;
49910;SDS011;35803;53.096;5.844;2024-01-15T01:15:59;5.50;;;0.90;;
49910;SDS011;35803;53.096;5.844;2024-01-15T01:18:45;6.40;;;0.90;;
49910;SDS011;35803;53.096;5.844;2024-01-15T01:21:34;4.68;;;0.75;;
49910;SDS011;35803;53.096;5.844;2024-01-15T01:24:19;2.38;;;0.88;;
49910;SDS011;35803;53.096;5.844;2024-01-15T01:27:05;2.33;;;1.13;;
49910;SDS011;35803;53.096;5.844;2024-01-15T01:29:51;3.42;;;1.13;;
49910;SDS011;35803;53.096;5.844;2024-01-15T01:32:37;12.40;;;1.42;;
49910;SDS011;35803;53.096;5.844;2024-01-15T01:35:23;2.95;;;0.70;;
49910;SDS011;35803;53.096;5.844;2024-01-15T01:38:08;5.05;;;1.00;;
49910;SDS011;35803;53.096;5.844;2024-01-15T01:40:54;3.88;;;1.00;;
49910;SDS011;35803;53.096;5.844;2024-01-15T01:43:40;3.47;;;1.13;;
49910;SDS011;35803;53.096;5.844;2024-01-15T01:46:26;5.30;;;1.52;;
49910;SDS011;35803;53.096;5.844;2024-01-15T01:49:12;2.45;;;1.00;;
49910;SDS011;35803;53.096;5.844;2024-01-15T01:52:00;6.55;;;1.23;;
49910;SDS011;35803;53.096;5.844;2024-01-15T01:54:47;4.28;;;1.58;;
49910;SDS011;35803;53.096;5.844;2024-01-15T01:57:33;4.70;;;1.15;;
49910;SDS011;35803;53.096;5.844;2024-01-15T02:00:19;6.60;;;1.50;;
49910;SDS011;35803;53.096;5.844;2024-01-15T02:03:05;5.47;;;0.90;;
49910;SDS011;35803;53.096;5.844;2024-01-15T02:05:51;5.90;;;1.45;;
49910;SDS011;35803;53.096;5.844;2024-01-15T02:08:38;7.07;;;1.10;;
49910;SDS011;35803;53.096;5.844;2024-01-15T02:11:24;5.25;;;1.38;;
49910;SDS011;35803;53.096;5.844;2024-01-15T02:14:10;11.25;;;1.55;;
49910;SDS011;35803;53.096;5.844;2024-01-15T02:16:56;6.40;;;1.20;;
49910;SDS011;35803;53.096;5.844;2024-01-15T02:19:41;5.32;;;0.80;;
49910;SDS011;35803;53.096;5.844;2024-01-15T02:22:30;7.95;;;1.15;;
49910;SDS011;35803;53.096;5.844;2024-01-15T02:25:16;5.90;;;1.48;;
49910;SDS011;35803;53.096;5.844;2024-01-15T02:28:02;12.20;;;1.88;;
49910;SDS011;35803;53.096;5.844;2024-01-15T02:30:48;5.47;;;1.50;;
49910;SDS011;35803;53.096;5.844;2024-01-15T02:33:34;4.20;;;1.10;;
49910;SDS011;35803;53.096;5.844;2024-01-15T02:36:19;6.15;;;1.52;;
49910;SDS011;35803;53.096;5.844;2024-01-15T02:39:05;8.95;;;2.30;;
49910;SDS011;35803;53.096;5.844;2024-01-15T02:41:51;4.25;;;1.13;;
49910;SDS011;35803;53.096;5.844;2024-01-15T02:44:37;9.55;;;1.55;;
49910;SDS011;35803;53.096;5.844;2024-01-15T02:47:22;7.68;;;1.10;;
49910;SDS011;35803;53.096;5.844;2024-01-15T02:50:08;1.75;;;0.75;;
49910;SDS011;35803;53.096;5.844;2024-01-15T02:52:54;3.05;;;1.20;;
49910;SDS011;35803;53.096;5.844;2024-01-15T02:55:40;7.38;;;0.95;;
49910;SDS011;35803;53.096;5.844;2024-01-15T02:58:25;3.92;;;1.40;;
49910;SDS011;35803;53.096;5.844;2024-01-15T03:01:11;3.20;;;0.98;;
49910;SDS011;35803;53.096;5.844;2024-01-15T03:03:57;5.05;;;1.10;;
49910;SDS011;35803;53.096;5.844;2024-01-15T03:06:43;5.43;;;0.93;;
49910;SDS011;35803;53.096;5.844;2024-01-15T03:09:28;3.15;;;0.75;;
49910;SDS011;35803;53.096;5.844;2024-01-15T03:12:14;2.95;;;1.00;;
49910;SDS011;35803;53.096;5.844;2024-01-15T03:15:00;7.55;;;1.42;;
49910;SDS011;35803;53.096;5.844;2024-01-15T03:17:46;4.10;;;1.52;;
49910;SDS011;35803;53.096;5.844;2024-01-15T03:20:32;4.75;;;1.40;;
49910;SDS011;35803;53.096;5.844;2024-01-15T03:23:18;4.57;;;1.00;;
49910;SDS011;35803;53.096;5.844;2024-01-15T03:26:03;5.45;;;1.20;;
49910;SDS011;35803;53.096;5.844;2024-01-15T03:28:52;4.55;;;1.30;;
49910;SDS011;35803;53.096;5.844;2024-01-15T03:31:38;10.77;;;1.65;;
49910;SDS011;35803;53.096;5.844;2024-01-15T03:34:23;6.20;;;1.23;;
49910;SDS011;35803;53.096;5.844;2024-01-15T03:37:09;7.28;;;2.65;;
49910;SDS011;35803;53.096;5.844;2024-01-15T03:39:55;3.83;;;1.27;;
49910;SDS011;35803;53.096;5.844;2024-01-15T03:42:41;9.85;;;1.42;;
49910;SDS011;35803;53.096;5.844;2024-01-15T03:45:27;4.97;;;1.20;;
49910;SDS011;35803;53.096;5.844;2024-01-15T03:48:13;4.93;;;1.02;;
49910;SDS011;35803;53.096;5.844;2024-01-15T03:50:59;7.00;;;1.35;;
49910;SDS011;35803;53.096;5.844;2024-01-15T03:53:44;7.85;;;1.48;;
49910;SDS011;35803;53.096;5.844;2024-01-15T03:56:30;4.88;;;1.50;;
49910;SDS011;35803;53.096;5.844;2024-01-15T03:59:16;6.13;;;1.02;;
49910;SDS011;35803;53.096;5.844;2024-01-15T04:02:02;3.63;;;0.88;;
49910;SDS011;35803;53.096;5.844;2024-01-15T04:04:49;6.07;;;1.00;;
49910;SDS011;35803;53.096;5.844;2024-01-15T04:07:35;2.30;;;0.95;;
49910;SDS011;35803;53.096;5.844;2024-01-15T04:10:20;2.83;;;0.90;;
49910;SDS011;35803;53.096;5.844;2024-01-15T04:13:06;2.15;;;0.80;;
49910;SDS011;35803;53.096;5.844;2024-01-15T04:15:52;0.75;;;0.75;;
49910;SDS011;35803;53.096;5.844;2024-01-15T04:18:38;4.15;;;0.90;;
49910;SDS011;35803;53.096;5.844;2024-01-15T04:21:23;3.75;;;1.05;;
49910;SDS011;35803;53.096;5.844;2024-01-15T04:24:09;4.60;;;1.05;;
49910;SDS011;35803;53.096;5.844;2024-01-15T04:26:55;2.70;;;1.00;;
49910;SDS011;35803;53.096;5.844;2024-01-15T04:29:41;5.80;;;1.25;;
49910;SDS011;35803;53.096;5.844;2024-01-15T04:32:30;10.00;;;1.33;;
49910;SDS011;35803;53.096;5.844;2024-01-15T04:35:15;4.95;;;1.00;;
49910;SDS011;35803;53.096;5.844;2024-01-15T04:38:01;6.47;;;1.08;;
49910;SDS011;35803;53.096;5.844;2024-01-15T04:40:47;5.22;;;1.55;;
49910;SDS011;35803;53.096;5.844;2024-01-15T04:43:33;3.00;;;1.13;;
49910;SDS011;35803;53.096;5.844;2024-01-15T04:46:18;9.88;;;1.33;;
49910;SDS011;35803;53.096;5.844;2024-01-15T04:49:04;6.35;;;1.05;;
49910;SDS011;35803;53.096;5.844;2024-01-15T04:51:50;6.53;;;1.38;;
49910;SDS011;35803;53.096;5.844;2024-01-15T04:54:36;3.17;;;1.08;;
49910;SDS011;35803;53.096;5.844;2024-01-15T04:57:22;3.97;;;1.10;;
49910;SDS011;35803;53.096;5.844;2024-01-15T05:00:07;10.07;;;1.38;;
49910;SDS011;35803;53.096;5.844;2024-01-15T05:02:53;8.88;;;1.65;;
49910;SDS011;35803;53.096;5.844;2024-01-15T05:05:39;7.47;;;1.05;;
49910;SDS011;35803;53.096;5.844;2024-01-15T05:08:25;9.60;;;1.35;;
49910;SDS011;35803;53.096;5.844;2024-01-15T05:11:11;4.70;;;1.80;;
49910;SDS011;35803;53.096;5.844;2024-01-15T05:13:57;6.40;;;1.38;;
49910;SDS011;35803;53.096;5.844;2024-01-15T05:16:49;7.82;;;1.48;;
49910;SDS011;35803;53.096;5.844;2024-01-15T05:19:35;8.18;;;1.33;;
49910;SDS011;35803;53.096;5.844;2024-01-15T05:22:20;7.70;;;1.65;;
49910;SDS011;35803;53.096;5.844;2024-01-15T05:25:06;5.45;;;1.40;;
49910;SDS011;35803;53.096;5.844;2024-01-15T05:27:52;5.18;;;1.45;;
49910;SDS011;35803;53.096;5.844;2024-01-15T05:30:38;8.57;;;1.60;;
49910;SDS011;35803;53.096;5.844;2024-01-15T05:33:23;5.85;;;1.30;;
49910;SDS011;35803;53.096;5.844;2024-01-15T05:36:09;4.15;;;1.23;;
49910;SDS011;35803;53.096;5.844;2024-01-15T05:38:55;5.82;;;1.65;;
49910;SDS011;35803;53.096;5.844;2024-01-15T05:41:41;6.57;;;1.17;;
49910;SDS011;35803;53.096;5.844;2024-01-15T05:44:26;7.50;;;1.20;;
49910;SDS011;35803;53.096;5.844;2024-01-15T05:47:12;10.40;;;1.58;;
49910;SDS011;35803;53.096;5.844;2024-01-15T05:49:58;9.85;;;1.45;;
49910;SDS011;35803;53.096;5.844;2024-01-15T05:52:44;9.15;;;1.30;;
49910;SDS011;35803;53.096;5.844;2024-01-15T05:55:29;8.68;;;1.20;;
49910;SDS011;35803;53.096;5.844;2024-01-15T05:58:15;6.07;;;1.60;;
49910;SDS011;35803;53.096;5.844;2024-01-15T06:01:01;8.93;;;1.60;;
49910;SDS011;35803;53.096;5.844;2024-01-15T06:03:47;6.90;;;1.50;;
49910;SDS011;35803;53.096;5.844;2024-01-15T06:06:32;6.60;;;1.73;;
49910;SDS011;35803;53.096;5.844;2024-01-15T06:09:18;5.65;;;1.30;;
49910;SDS011;35803;53.096;5.844;2024-01-15T06:12:04;4.18;;;1.30;;
49910;SDS011;35803;53.096;5.844;2024-01-15T06:14:52;7.60;;;1.85;;
49910;SDS011;35803;53.096;5.844;2024-01-15T06:17:38;2.70;;;1.23;;
49910;SDS011;35803;53.096;5.844;2024-01-15T06:20:24;3.97;;;1.05;;
49910;SDS011;35803;53.096;5.844;2024-01-15T06:23:09;3.25;;;1.17;;
49910;SDS011;35803;53.096;5.844;2024-01-15T06:25:55;4.25;;;1.08;;
49910;SDS011;35803;53.096;5.844;2024-01-15T06:28:41;3.45;;;1.00;;
49910;SDS011;35803;53.096;5.844;2024-01-15T06:31:27;5.07;;;0.90;;
49910;SDS011;35803;53.096;5.844;2024-01-15T06:34:15;2.85;;;0.93;;
49910;SDS011;35803;53.096;5.844;2024-01-15T06:37:00;8.57;;;1.20;;
49910;SDS011;35803;53.096;5.844;2024-01-15T06:39:46;6.50;;;1.10;;
49910;SDS011;35803;53.096;5.844;2024-01-15T06:42:32;3.95;;;1.00;;
49910;SDS011;35803;53.096;5.844;2024-01-15T06:45:17;6.22;;;1.20;;
49910;SDS011;35803;53.096;5.844;2024-01-15T06:48:03;5.35;;;0.90;;
49910;SDS011;35803;53.096;5.844;2024-01-15T06:50:49;4.97;;;1.15;;
49910;SDS011;35803;53.096;5.844;2024-01-15T06:53:35;5.10;;;1.30;;
49910;SDS011;35803;53.096;5.844;2024-01-15T06:56:21;7.47;;;1.20;;
49910;SDS011;35803;53.096;5.844;2024-01-15T06:59:06;6.95;;;1.52;;
49910;SDS011;35803;53.096;5.844;2024-01-15T07:01:52;6.53;;;1.63;;
49910;SDS011;35803;53.096;5.844;2024-01-15T07:04:38;8.05;;;2.00;;
49910;SDS011;35803;53.096;5.844;2024-01-15T07:07:24;11.95;;;2.53;;
49910;SDS011;35803;53.096;5.844;2024-01-15T07:10:10;7.82;;;2.45;;
49910;SDS011;35803;53.096;5.844;2024-01-15T07:12:56;9.35;;;2.15;;
49910;SDS011;35803;53.096;5.844;2024-01-15T07:15:42;5.68;;;1.50;;
49910;SDS011;35803;53.096;5.844;2024-01-15T07:18:28;7.43;;;1.85;;
49910;SDS011;35803;53.096;5.844;2024-01-15T07:21:13;7.25;;;2.72;;
49910;SDS011;35803;53.096;5.844;2024-01-15T07:23:59;6.65;;;2.10;;
49910;SDS011;35803;53.096;5.844;2024-01-15T07:26:45;5.03;;;2.40;;
49910;SDS011;35803;53.096;5.844;2024-01-15T07:29:31;5.13;;;1.95;;
49910;SDS011;35803;53.096;5.844;2024-01-15T07:32:22;5.88;;;1.05;;
49910;SDS011;35803;53.096;5.844;2024-01-15T07:35:08;5.43;;;1.70;;
49910;SDS011;35803;53.096;5.844;2024-01-15T07:37:54;8.05;;;1.20;;
49910;SDS011;35803;53.096;5.844;2024-01-15T07:40:39;8.20;;;1.13;;
49910;SDS011;35803;53.096;5.844;2024-01-15T07:43:26;6.80;;;1.50;;
49910;SDS011;35803;53.096;5.844;2024-01-15T07:46:13;5.47;;;1.38;;
49910;SDS011;35803;53.096;5.844;2024-01-15T07:48:58;4.50;;;1.33;;
49910;SDS011;35803;53.096;5.844;2024-01-15T07:51:44;9.25;;;1.92;;
49910;SDS011;35803;53.096;5.844;2024-01-15T07:54:30;4.95;;;1.00;;
49910;SDS011;35803;53.096;5.844;2024-01-15T07:57:17;4.20;;;1.20;;
49910;SDS011;35803;53.096;5.844;2024-01-15T08:00:03;4.57;;;1.20;;
49910;SDS011;35803;53.096;5.844;2024-01-15T08:02:50;3.63;;;1.00;;
49910;SDS011;35803;53.096;5.844;2024-01-15T08:05:36;2.47;;;1.13;;
49910;SDS011;35803;53.096;5.844;2024-01-15T08:08:22;5.10;;;1.35;;
49910;SDS011;35803;53.096;5.844;2024-01-15T08:11:08;4.22;;;1.08;;
49910;SDS011;35803;53.096;5.844;2024-01-15T08:13:54;1.38;;;0.80;;
49910;SDS011;35803;53.096;5.844;2024-01-15T08:16:39;4.25;;;1.02;;
49910;SDS011;35803;53.096;5.844;2024-01-15T08:19:25;4.45;;;1.00;;
49910;SDS011;35803;53.096;5.844;2024-01-15T08:22:11;2.40;;;1.10;;
49910;SDS011;35803;53.096;5.844;2024-01-15T08:24:57;3.63;;;1.20;;
49910;SDS011;35803;53.096;5.844;2024-01-15T08:27:43;3.38;;;1.60;;
49910;SDS011;35803;53.096;5.844;2024-01-15T08:30:28;7.40;;;1.60;;
49910;SDS011;35803;53.096;5.844;2024-01-15T08:33:14;3.95;;;1.67;;
49910;SDS011;35803;53.096;5.844;2024-01-15T08:36:00;3.83;;;1.38;;
49910;SDS011;35803;53.096;5.844;2024-01-15T08:38:46;4.20;;;1.73;;
49910;SDS011;35803;53.096;5.844;2024-01-15T08:41:34;5.97;;;2.83;;
49910;SDS011;35803;53.096;5.844;2024-01-15T08:44:22;10.80;;;2.40;;
49910;SDS011;35803;53.096;5.844;2024-01-15T08:47:07;6.18;;;1.52;;
49910;SDS011;35803;53.096;5.844;2024-01-15T08:49:53;3.00;;;1.15;;
49910;SDS011;35803;53.096;5.844;2024-01-15T08:52:42;1.00;;;0.75;;
49910;SDS011;35803;53.096;5.844;2024-01-15T08:55:28;4.18;;;1.10;;
49910;SDS011;35803;53.096;5.844;2024-01-15T08:58:14;6.55;;;1.40;;
49910;SDS011;35803;53.096;5.844;2024-01-15T09:00:59;1.95;;;1.13;;
49910;SDS011;35803;53.096;5.844;2024-01-15T09:03:45;3.33;;;1.20;;
49910;SDS011;35803;53.096;5.844;2024-01-15T09:06:34;4.95;;;1.70;;
49910;SDS011;35803;53.096;5.844;2024-01-15T09:09:20;7.20;;;1.45;;
49910;SDS011;35803;53.096;5.844;2024-01-15T09:12:06;2.50;;;1.30;;
49910;SDS011;35803;53.096;5.844;2024-01-15T09:14:52;6.95;;;1.30;;
49910;SDS011;35803;53.096;5.844;2024-01-15T09:17:39;4.93;;;1.00;;
49910;SDS011;35803;53.096;5.844;2024-01-15T09:20:25;4.45;;;1.15;;
49910;SDS011;35803;53.096;5.844;2024-01-15T09:23:12;1.55;;;1.10;;
49910;SDS011;35803;53.096;5.844;2024-01-15T09:25:58;3.70;;;1.08;;
49910;SDS011;35803;53.096;5.844;2024-01-15T09:28:44;6.03;;;1.42;;
49910;SDS011;35803;53.096;5.844;2024-01-15T09:31:30;3.38;;;1.23;;
49910;SDS011;35803;53.096;5.844;2024-01-15T09:34:16;5.40;;;1.20;;
49910;SDS011;35803;53.096;5.844;2024-01-15T09:37:02;3.30;;;1.10;;
49910;SDS011;35803;53.096;5.844;2024-01-15T09:39:49;2.42;;;0.73;;
49910;SDS011;35803;53.096;5.844;2024-01-15T09:42:35;1.20;;;0.52;;
49910;SDS011;35803;53.096;5.844;2024-01-15T09:45:21;2.30;;;0.95;;
49910;SDS011;35803;53.096;5.844;2024-01-15T09:48:09;1.48;;;0.70;;
49910;SDS011;35803;53.096;5.844;2024-01-15T09:50:59;2.85;;;0.80;;
49910;SDS011;35803;53.096;5.844;2024-01-15T09:53:47;0.73;;;0.70;;
49910;SDS011;35803;53.096;5.844;2024-01-15T09:56:33;6.72;;;1.10;;
49910;SDS011;35803;53.096;5.844;2024-01-15T09:59:19;4.55;;;1.02;;
49910;SDS011;35803;53.096;5.844;2024-01-15T10:02:06;1.27;;;1.17;;
49910;SDS011;35803;53.096;5.844;2024-01-15T10:04:52;5.07;;;0.90;;
49910;SDS011;35803;53.096;5.844;2024-01-15T10:07:41;1.95;;;0.60;;
49910;SDS011;35803;53.096;5.844;2024-01-15T10:10:27;1.42;;;0.60;;
49910;SDS011;35803;53.096;5.844;2024-01-15T10:13:14;0.70;;;0.60;;
49910;SDS011;35803;53.096;5.844;2024-01-15T10:16:00;0.77;;;0.70;;
49910;SDS011;35803;53.096;5.844;2024-01-15T10:18:49;3.92;;;0.70;;
49910;SDS011;35803;53.096;5.844;2024-01-15T10:21:35;2.75;;;0.98;;
49910;SDS011;35803;53.096;5.844;2024-01-15T10:24:21;2.30;;;1.00;;
49910;SDS011;35803;53.096;5.844;2024-01-15T10:27:07;4.22;;;0.68;;
49910;SDS011;35803;53.096;5.844;2024-01-15T10:29:59;1.00;;;0.50;;
49910;SDS011;35803;53.096;5.844;2024-01-15T10:32:48;0.50;;;0.50;;
49910;SDS011;35803;53.096;5.844;2024-01-15T10:35:46;0.60;;;0.60;;
49910;SDS011;35803;53.096;5.844;2024-01-15T10:38:32;3.40;;;0.70;;
49910;SDS011;35803;53.096;5.844;2024-01-15T10:41:18;2.80;;;0.80;;
49910;SDS011;35803;53.096;5.844;2024-01-15T10:44:04;1.70;;;0.63;;
49910;SDS011;35803;53.096;5.844;2024-01-15T10:46:50;1.20;;;0.90;;
49910;SDS011;35803;53.096;5.844;2024-01-15T10:49:36;4.07;;;1.08;;
49910;SDS011;35803;53.096;5.844;2024-01-15T10:52:22;4.35;;;0.80;;
49910;SDS011;35803;53.096;5.844;2024-01-15T10:55:08;3.40;;;0.80;;
49910;SDS011;35803;53.096;5.844;2024-01-15T10:57:55;2.88;;;0.90;;
49910;SDS011;35803;53.096;5.844;2024-01-15T11:00:42;2.25;;;0.77;;
49910;SDS011;35803;53.096;5.844;2024-01-15T11:03:28;3.55;;;0.98;;
49910;SDS011;35803;53.096;5.844;2024-01-15T11:06:17;4.57;;;1.58;;
49910;SDS011;35803;53.096;5.844;2024-01-15T11:09:05;4.95;;;1.00;;
49910;SDS011;35803;53.096;5.844;2024-01-15T11:12:06;1.40;;;0.80;;
49910;SDS011;35803;53.096;5.844;2024-01-15T11:15:00;3.35;;;1.10;;
49910;SDS011;35803;53.096;5.844;2024-01-15T11:17:59;3.72;;;1.02;;
49910;SDS011;35803;53.096;5.844;2024-01-15T11:24:04;2.67;;;1.02;;
49910;SDS011;35803;53.096;5.844;2024-01-15T11:26:52;7.78;;;1.83;;
49910;SDS011;35803;53.096;5.844;2024-01-15T11:29:39;7.68;;;1.13;;
49910;SDS011;35803;53.096;5.844;2024-01-15T11:32:32;1.75;;;1.25;;
49910;SDS011;35803;53.096;5.844;2024-01-15T11:35:18;5.35;;;0.93;;
49910;SDS011;35803;53.096;5.844;2024-01-15T11:38:04;1.17;;;0.77;;
49910;SDS011;35803;53.096;5.844;2024-01-15T11:40:52;2.72;;;0.90;;
49910;SDS011;35803;53.096;5.844;2024-01-15T11:43:38;1.40;;;0.70;;
49910;SDS011;35803;53.096;5.844;2024-01-15T11:46:24;1.13;;;0.85;;
49910;SDS011;35803;53.096;5.844;2024-01-15T11:49:11;1.85;;;0.90;;
49910;SDS011;35803;53.096;5.844;2024-01-15T11:51:58;2.85;;;0.90;;
49910;SDS011;35803;53.096;5.844;2024-01-15T11:57:52;5.00;;;1.30;;
49910;SDS011;35803;53.096;5.844;2024-01-15T12:00:43;3.38;;;1.08;;
49910;SDS011;35803;53.096;5.844;2024-01-15T12:03:31;8.00;;;1.30;;
49910;SDS011;35803;53.096;5.844;2024-01-15T12:06:19;3.78;;;1.73;;
49910;SDS011;35803;53.096;5.844;2024-01-15T12:09:08;8.55;;;1.63;;
49910;SDS011;35803;53.096;5.844;2024-01-15T12:12:03;7.55;;;1.67;;
49910;SDS011;35803;53.096;5.844;2024-01-15T12:14:53;5.03;;;1.35;;
49910;SDS011;35803;53.096;5.844;2024-01-15T12:17:39;2.65;;;1.10;;
49910;SDS011;35803;53.096;5.844;2024-01-15T12:20:25;4.80;;;1.65;;
49910;SDS011;35803;53.096;5.844;2024-01-15T12:23:11;5.10;;;1.40;;
49910;SDS011;35803;53.096;5.844;2024-01-15T12:25:58;2.85;;;1.00;;
49910;SDS011;35803;53.096;5.844;2024-01-15T12:28:44;5.57;;;1.38;;
49910;SDS011;35803;53.096;5.844;2024-01-15T12:31:30;7.25;;;1.33;;
49910;SDS011;35803;53.096;5.844;2024-01-15T12:34:17;4.50;;;1.00;;
49910;SDS011;35803;53.096;5.844;2024-01-15T12:37:03;3.65;;;0.98;;
49910;SDS011;35803;53.096;5.844;2024-01-15T12:39:49;3.83;;;1.05;;
49910;SDS011;35803;53.096;5.844;2024-01-15T12:42:37;2.70;;;1.10;;
49910;SDS011;35803;53.096;5.844;2024-01-15T12:45:24;7.38;;;1.40;;
49910;SDS011;35803;53.096;5.844;2024-01-15T12:48:10;4.70;;;1.17;;
49910;SDS011;35803;53.096;5.844;2024-01-15T12:50:58;6.68;;;1.35;;
49910;SDS011;35803;53.096;5.844;2024-01-15T12:53:44;4.55;;;1.52;;
49910;SDS011;35803;53.096;5.844;2024-01-15T12:56:30;3.13;;;1.20;;
49910;SDS011;35803;53.096;5.844;2024-01-15T12:59:16;9.95;;;1.58;;
49910;SDS011;35803;53.096;5.844;2024-01-15T13:02:02;5.00;;;1.20;;
49910;SDS011;35803;53.096;5.844;2024-01-15T13:04:49;7.07;;;1.52;;
49910;SDS011;35803;53.096;5.844;2024-01-15T13:07:35;6.00;;;1.80;;
49910;SDS011;35803;53.096;5.844;2024-01-15T13:10:20;2.30;;;1.13;;
49910;SDS011;35803;53.096;5.844;2024-01-15T13:13:06;8.82;;;1.40;;
49910;SDS011;35803;53.096;5.844;2024-01-15T13:15:52;3.13;;;1.30;;
49910;SDS011;35803;53.096;5.844;2024-01-15T13:18:38;7.75;;;1.55;;
49910;SDS011;35803;53.096;5.844;2024-01-15T13:21:24;4.30;;;1.10;;
49910;SDS011;35803;53.096;5.844;2024-01-15T13:24:10;5.90;;;1.30;;
49910;SDS011;35803;53.096;5.844;2024-01-15T13:26:56;4.93;;;1.52;;
49910;SDS011;35803;53.096;5.844;2024-01-15T13:29:42;6.15;;;1.55;;
49910;SDS011;35803;53.096;5.844;2024-01-15T13:32:28;12.25;;;1.48;;
49910;SDS011;35803;53.096;5.844;2024-01-15T13:35:14;6.65;;;1.35;;
49910;SDS011;35803;53.096;5.844;2024-01-15T13:38:00;5.88;;;1.40;;
49910;SDS011;35803;53.096;5.844;2024-01-15T13:40:46;14.75;;;2.17;;
49910;SDS011;35803;53.096;5.844;2024-01-15T13:43:32;4.40;;;1.02;;
49910;SDS011;35803;53.096;5.844;2024-01-15T13:46:23;3.10;;;1.10;;
49910;SDS011;35803;53.096;5.844;2024-01-15T13:49:17;3.40;;;0.82;;
49910;SDS011;35803;53.096;5.844;2024-01-15T13:52:03;3.60;;;0.95;;
49910;SDS011;35803;53.096;5.844;2024-01-15T13:54:49;3.45;;;0.80;;
49910;SDS011;35803;53.096;5.844;2024-01-15T13:57:35;4.88;;;1.15;;
49910;SDS011;35803;53.096;5.844;2024-01-15T14:00:21;5.05;;;1.40;;
49910;SDS011;35803;53.096;5.844;2024-01-15T14:03:09;3.13;;;0.85;;
49910;SDS011;35803;53.096;5.844;2024-01-15T14:05:56;2.17;;;0.80;;
49910;SDS011;35803;53.096;5.844;2024-01-15T14:08:42;3.13;;;0.88;;
49910;SDS011;35803;53.096;5.844;2024-01-15T14:11:28;2.30;;;1.05;;
49910;SDS011;35803;53.096;5.844;2024-01-15T14:14:14;2.95;;;1.10;;
49910;SDS011;35803;53.096;5.844;2024-01-15T14:17:00;4.93;;;1.10;;
49910;SDS011;35803;53.096;5.844;2024-01-15T14:19:46;5.13;;;1.15;;
49910;SDS011;35803;53.096;5.844;2024-01-15T14:22:32;4.70;;;0.90;;
49910;SDS011;35803;53.096;5.844;2024-01-15T14:25:18;4.10;;;1.25;;
49910;SDS011;35803;53.096;5.844;2024-01-15T14:28:04;3.83;;;1.30;;
49910;SDS011;35803;53.096;5.844;2024-01-15T14:30:50;3.50;;;1.27;;
49910;SDS011;35803;53.096;5.844;2024-01-15T14:33:36;5.68;;;0.93;;
49910;SDS011;35803;53.096;5.844;2024-01-15T14:36:22;4.13;;;0.90;;
49910;SDS011;35803;53.096;5.844;2024-01-15T14:39:08;5.03;;;0.90;;
49910;SDS011;35803;53.096;5.844;2024-01-15T14:41:55;1.63;;;1.00;;
49910;SDS011;35803;53.096;5.844;2024-01-15T14:44:40;2.97;;;0.98;;
49910;SDS011;35803;53.096;5.844;2024-01-15T14:47:26;2.10;;;0.90;;
49910;SDS011;35803;53.096;5.844;2024-01-15T14:50:13;3.55;;;0.85;;
49910;SDS011;35803;53.096;5.844;2024-01-15T14:52:58;1.83;;;0.70;;
49910;SDS011;35803;53.096;5.844;2024-01-15T14:55:44;1.10;;;0.65;;
49910;SDS011;35803;53.096;5.844;2024-01-15T14:58:30;1.02;;;0.80;;
49910;SDS011;35803;53.096;5.844;2024-01-15T15:01:15;1.35;;;0.80;;
49910;SDS011;35803;53.096;5.844;2024-01-15T15:04:01;2.25;;;0.77;;
49910;SDS011;35803;53.096;5.844;2024-01-15T15:06:50;3.03;;;0.90;;
49910;SDS011;35803;53.096;5.844;2024-01-15T15:09:36;1.35;;;0.70;;
49910;SDS011;35803;53.096;5.844;2024-01-15T15:12:22;14.90;;;4.20;;
49910;SDS011;35803;53.096;5.844;2024-01-15T15:15:12;15.23;;;5.78;;
49910;SDS011;35803;53.096;5.844;2024-01-15T15:17:58;21.77;;;6.68;;
49910;SDS011;35803;53.096;5.844;2024-01-15T15:20:44;5.18;;;2.97;;
49910;SDS011;35803;53.096;5.844;2024-01-15T15:23:30;2.25;;;1.50;;
49910;SDS011;35803;53.096;5.844;2024-01-15T15:26:16;3.28;;;0.82;;
49910;SDS011;35803;53.096;5.844;2024-01-15T15:29:02;1.67;;;0.80;;
49910;SDS011;35803;53.096;5.844;2024-01-15T15:31:47;1.55;;;0.70;;
49910;SDS011;35803;53.096;5.844;2024-01-15T15:34:34;2.28;;;1.00;;
49910;SDS011;35803;53.096;5.844;2024-01-15T15:37:20;5.30;;;1.17;;
49910;SDS011;35803;53.096;5.844;2024-01-15T15:40:06;2.55;;;1.00;;
49910;SDS011;35803;53.096;5.844;2024-01-15T15:42:54;4.75;;;0.88;;
49910;SDS011;35803;53.096;5.844;2024-01-15T15:45:42;0.98;;;0.60;;
49910;SDS011;35803;53.096;5.844;2024-01-15T15:48:28;1.48;;;0.80;;
49910;SDS011;35803;53.096;5.844;2024-01-15T15:51:14;2.10;;;0.90;;
49910;SDS011;35803;53.096;5.844;2024-01-15T15:53:59;2.28;;;1.00;;
49910;SDS011;35803;53.096;5.844;2024-01-15T15:56:49;2.75;;;1.35;;
49910;SDS011;35803;53.096;5.844;2024-01-15T15:59:37;3.25;;;0.90;;
49910;SDS011;35803;53.096;5.844;2024-01-15T16:02:23;1.27;;;0.95;;
49910;SDS011;35803;53.096;5.844;2024-01-15T16:05:09;2.80;;;0.88;;
49910;SDS011;35803;53.096;5.844;2024-01-15T16:07:55;4.28;;;1.20;;
49910;SDS011;35803;53.096;5.844;2024-01-15T16:10:41;1.90;;;1.00;;
49910;SDS011;35803;53.096;5.844;2024-01-15T16:13:27;2.70;;;1.02;;
49910;SDS011;35803;53.096;5.844;2024-01-15T16:16:13;4.30;;;1.23;;
49910;SDS011;35803;53.096;5.844;2024-01-15T16:18:59;1.83;;;0.82;;
49910;SDS011;35803;53.096;5.844;2024-01-15T16:21:45;1.25;;;0.90;;
49910;SDS011;35803;53.096;5.844;2024-01-15T16:24:31;3.58;;;1.05;;
49910;SDS011;35803;53.096;5.844;2024-01-15T16:27:17;3.35;;;1.10;;
49910;SDS011;35803;53.096;5.844;2024-01-15T16:30:03;1.77;;;1.30;;
49910;SDS011;35803;53.096;5.844;2024-01-15T16:32:52;2.92;;;1.30;;
49910;SDS011;35803;53.096;5.844;2024-01-15T16:35:38;2.60;;;0.90;;
49910;SDS011;35803;53.096;5.844;2024-01-15T16:38:24;6.50;;;1.48;;
49910;SDS011;35803;53.096;5.844;2024-01-15T16:41:10;1.65;;;1.20;;
49910;SDS011;35803;53.096;5.844;2024-01-15T16:43:56;5.70;;;1.20;;
49910;SDS011;35803;53.096;5.844;2024-01-15T16:46:42;3.05;;;0.90;;
49910;SDS011;35803;53.096;5.844;2024-01-15T16:49:28;2.65;;;0.90;;